sensor_id;sensor_type;location;lat;lon;timestamp;P1;durP1;ratioP1;P2;durP2;ratioP2
77466;SDS011;66564;42.482;25.548;2024-01-30T00:01:16;5.13;;;2.45;;
77466;SDS011;66564;42.482;25.548;2024-01-30T00:03:42;4.05;;;2.33;;
77466;SDS011;66564;42.482;25.548;2024-01-30T00:06:08;6.75;;;2.80;;
77466;SDS011;66564;42.482;25.548;2024-01-30T00:08:34;5.18;;;3.38;;
77466;SDS011;66564;42.482;25.548;2024-01-30T00:11:00;6.45;;;3.58;;
77466;SDS011;66564;42.482;25.548;2024-01-30T00:13:26;5.03;;;3.47;;
77466;SDS011;66564;42.482;25.548;2024-01-30T00:15:52;7.85;;;4.05;;
77466;SDS011;66564;42.482;25.548;2024-01-30T00:18:17;6.95;;;3.30;;
77466;SDS011;66564;42.482;25.548;2024-01-30T00:20:43;7.00;;;3.58;;
77466;SDS011;66564;42.482;25.548;2024-01-30T00:23:09;10.43;;;4.13;;
77466;SDS011;66564;42.482;25.548;2024-01-30T00:25:34;7.90;;;4.20;;
77466;SDS011;66564;42.482;25.548;2024-01-30T00:28:00;7.15;;;3.65;;
77466;SDS011;66564;42.482;25.548;2024-01-30T00:30:26;8.05;;;3.70;;
77466;SDS011;66564;42.482;25.548;2024-01-30T00:32:51;8.35;;;4.25;;
77466;SDS011;66564;42.482;25.548;2024-01-30T00:35:17;6.82;;;3.78;;
77466;SDS011;66564;42.482;25.548;2024-01-30T00:37:42;7.43;;;4.05;;
77466;SDS011;66564;42.482;25.548;2024-01-30T00:40:08;7.03;;;4.03;;
77466;SDS011;66564;42.482;25.548;2024-01-30T00:42:35;9.68;;;3.85;;
77466;SDS011;66564;42.482;25.548;2024-01-30T00:45:01;7.90;;;3.65;;
77466;SDS011;66564;42.482;25.548;2024-01-30T00:47:26;6.70;;;3.80;;
77466;SDS011;66564;42.482;25.548;2024-01-30T00:49:52;9.02;;;5.10;;
77466;SDS011;66564;42.482;25.548;2024-01-30T00:52:17;7.35;;;3.72;;
77466;SDS011;66564;42.482;25.548;2024-01-30T00:54:42;8.18;;;3.65;;
77466;SDS011;66564;42.482;25.548;2024-01-30T00:57:08;7.97;;;3.80;;
77466;SDS011;66564;42.482;25.548;2024-01-30T00:59:34;7.00;;;3.63;;
77466;SDS011;66564;42.482;25.548;2024-01-30T01:01:59;7.68;;;3.38;;
77466;SDS011;66564;42.482;25.548;2024-01-30T01:04:25;8.90;;;4.07;;
77466;SDS011;66564;42.482;25.548;2024-01-30T01:06:51;11.07;;;3.40;;
77466;SDS011;66564;42.482;25.548;2024-01-30T01:09:17;8.77;;;4.50;;
77466;SDS011;66564;42.482;25.548;2024-01-30T01:11:43;7.95;;;4.40;;
77466;SDS011;66564;42.482;25.548;2024-01-30T01:14:08;8.23;;;3.72;;
77466;SDS011;66564;42.482;25.548;2024-01-30T01:16:34;8.68;;;4.05;;
77466;SDS011;66564;42.482;25.548;2024-01-30T01:18:59;6.25;;;3.70;;
77466;SDS011;66564;42.482;25.548;2024-01-30T01:21:25;8.02;;;4.20;;
77466;SDS011;66564;42.482;25.548;2024-01-30T01:23:51;7.72;;;4.03;;
77466;SDS011;66564;42.482;25.548;2024-01-30T01:26:16;6.50;;;4.10;;
77466;SDS011;66564;42.482;25.548;2024-01-30T01:28:41;8.48;;;4.25;;
77466;SDS011;66564;42.482;25.548;2024-01-30T01:31:07;8.57;;;3.65;;
77466;SDS011;66564;42.482;25.548;2024-01-30T01:33:33;5.93;;;3.50;;
77466;SDS011;66564;42.482;25.548;2024-01-30T01:35:59;6.47;;;3.30;;
77466;SDS011;66564;42.482;25.548;2024-01-30T01:38:27;9.18;;;3.83;;
77466;SDS011;66564;42.482;25.548;2024-01-30T01:40:53;7.22;;;3.75;;
77466;SDS011;66564;42.482;25.548;2024-01-30T01:43:20;9.65;;;4.53;;
77466;SDS011;66564;42.482;25.548;2024-01-30T01:45:45;9.70;;;3.97;;
77466;SDS011;66564;42.482;25.548;2024-01-30T01:48:11;11.50;;;4.18;;
77466;SDS011;66564;42.482;25.548;2024-01-30T01:50:37;4.43;;;2.60;;
77466;SDS011;66564;42.482;25.548;2024-01-30T01:53:05;8.63;;;3.33;;
77466;SDS011;66564;42.482;25.548;2024-01-30T01:55:33;6.70;;;3.80;;
77466;SDS011;66564;42.482;25.548;2024-01-30T01:58:00;10.70;;;4.43;;
77466;SDS011;66564;42.482;25.548;2024-01-30T02:00:25;6.22;;;3.33;;
77466;SDS011;66564;42.482;25.548;2024-01-30T02:02:51;5.30;;;3.58;;
77466;SDS011;66564;42.482;25.548;2024-01-30T02:05:19;6.43;;;3.20;;
77466;SDS011;66564;42.482;25.548;2024-01-30T02:07:45;5.72;;;3.28;;
77466;SDS011;66564;42.482;25.548;2024-01-30T02:10:10;6.32;;;3.35;;
77466;SDS011;66564;42.482;25.548;2024-01-30T02:12:36;7.88;;;3.97;;
77466;SDS011;66564;42.482;25.548;2024-01-30T02:15:01;8.60;;;4.10;;
77466;SDS011;66564;42.482;25.548;2024-01-30T02:17:27;6.68;;;3.70;;
77466;SDS011;66564;42.482;25.548;2024-01-30T02:19:52;8.73;;;3.83;;
77466;SDS011;66564;42.482;25.548;2024-01-30T02:22:18;5.88;;;3.63;;
77466;SDS011;66564;42.482;25.548;2024-01-30T02:24:45;5.05;;;3.05;;
77466;SDS011;66564;42.482;25.548;2024-01-30T02:27:10;8.00;;;3.92;;
77466;SDS011;66564;42.482;25.548;2024-01-30T02:29:36;4.45;;;3.42;;
77466;SDS011;66564;42.482;25.548;2024-01-30T02:32:02;8.52;;;5.07;;
77466;SDS011;66564;42.482;25.548;2024-01-30T02:34:28;8.75;;;3.72;;
77466;SDS011;66564;42.482;25.548;2024-01-30T02:36:53;5.60;;;3.40;;
77466;SDS011;66564;42.482;25.548;2024-01-30T02:39:19;6.22;;;3.38;;
77466;SDS011;66564;42.482;25.548;2024-01-30T02:41:44;6.78;;;3.60;;
77466;SDS011;66564;42.482;25.548;2024-01-30T02:44:10;8.00;;;3.53;;
77466;SDS011;66564;42.482;25.548;2024-01-30T02:46:35;6.38;;;3.83;;
77466;SDS011;66564;42.482;25.548;2024-01-30T02:49:01;6.90;;;4.30;;
77466;SDS011;66564;42.482;25.548;2024-01-30T02:51:27;5.55;;;3.30;;
77466;SDS011;66564;42.482;25.548;2024-01-30T02:53:52;6.85;;;3.40;;
77466;SDS011;66564;42.482;25.548;2024-01-30T02:56:17;8.75;;;3.95;;
77466;SDS011;66564;42.482;25.548;2024-01-30T02:58:43;7.38;;;3.83;;
77466;SDS011;66564;42.482;25.548;2024-01-30T03:01:08;7.13;;;3.50;;
77466;SDS011;66564;42.482;25.548;2024-01-30T03:03:34;8.55;;;4.15;;
77466;SDS011;66564;42.482;25.548;2024-01-30T03:06:01;6.85;;;3.72;;
77466;SDS011;66564;42.482;25.548;2024-01-30T03:08:27;8.88;;;4.43;;
77466;SDS011;66564;42.482;25.548;2024-01-30T03:10:52;6.85;;;3.80;;
77466;SDS011;66564;42.482;25.548;2024-01-30T03:13:18;6.03;;;3.58;;
77466;SDS011;66564;42.482;25.548;2024-01-30T03:15:44;7.72;;;4.13;;
77466;SDS011;66564;42.482;25.548;2024-01-30T03:18:10;8.45;;;4.30;;
77466;SDS011;66564;42.482;25.548;2024-01-30T03:20:35;8.45;;;4.05;;
77466;SDS011;66564;42.482;25.548;2024-01-30T03:23:00;7.93;;;3.35;;
77466;SDS011;66564;42.482;25.548;2024-01-30T03:25:26;11.57;;;4.10;;
77466;SDS011;66564;42.482;25.548;2024-01-30T03:27:52;6.68;;;3.83;;
77466;SDS011;66564;42.482;25.548;2024-01-30T03:30:17;9.13;;;3.25;;
77466;SDS011;66564;42.482;25.548;2024-01-30T03:32:43;7.07;;;3.20;;
77466;SDS011;66564;42.482;25.548;2024-01-30T03:35:09;5.55;;;3.50;;
77466;SDS011;66564;42.482;25.548;2024-01-30T03:37:34;5.32;;;2.95;;
77466;SDS011;66564;42.482;25.548;2024-01-30T03:40:00;5.78;;;3.65;;
77466;SDS011;66564;42.482;25.548;2024-01-30T03:42:26;8.07;;;3.30;;
77466;SDS011;66564;42.482;25.548;2024-01-30T03:44:52;6.35;;;3.50;;
77466;SDS011;66564;42.482;25.548;2024-01-30T03:47:18;6.55;;;3.83;;
77466;SDS011;66564;42.482;25.548;2024-01-30T03:49:45;5.22;;;3.15;;
77466;SDS011;66564;42.482;25.548;2024-01-30T03:52:10;11.05;;;4.45;;
77466;SDS011;66564;42.482;25.548;2024-01-30T03:54:36;7.35;;;4.00;;
77466;SDS011;66564;42.482;25.548;2024-01-30T03:57:01;9.75;;;4.13;;
77466;SDS011;66564;42.482;25.548;2024-01-30T03:59:27;6.35;;;3.72;;
77466;SDS011;66564;42.482;25.548;2024-01-30T04:01:52;9.52;;;3.88;;
77466;SDS011;66564;42.482;25.548;2024-01-30T04:04:18;6.60;;;3.92;;
77466;SDS011;66564;42.482;25.548;2024-01-30T04:06:44;6.93;;;4.30;;
77466;SDS011;66564;42.482;25.548;2024-01-30T04:09:10;10.45;;;4.70;;
77466;SDS011;66564;42.482;25.548;2024-01-30T04:11:36;7.25;;;4.13;;
77466;SDS011;66564;42.482;25.548;2024-01-30T04:14:02;8.38;;;4.18;;
77466;SDS011;66564;42.482;25.548;2024-01-30T04:16:27;9.50;;;4.20;;
77466;SDS011;66564;42.482;25.548;2024-01-30T04:18:53;10.18;;;4.95;;
77466;SDS011;66564;42.482;25.548;2024-01-30T04:21:18;6.93;;;4.03;;
77466;SDS011;66564;42.482;25.548;2024-01-30T04:23:45;7.57;;;4.28;;
77466;SDS011;66564;42.482;25.548;2024-01-30T04:26:11;6.63;;;3.88;;
77466;SDS011;66564;42.482;25.548;2024-01-30T04:28:36;10.02;;;4.93;;
77466;SDS011;66564;42.482;25.548;2024-01-30T04:31:02;13.55;;;4.82;;
77466;SDS011;66564;42.482;25.548;2024-01-30T04:33:27;7.57;;;4.03;;
77466;SDS011;66564;42.482;25.548;2024-01-30T04:35:53;7.95;;;4.65;;
77466;SDS011;66564;42.482;25.548;2024-01-30T04:38:18;9.85;;;5.18;;
77466;SDS011;66564;42.482;25.548;2024-01-30T04:40:45;9.23;;;5.18;;
77466;SDS011;66564;42.482;25.548;2024-01-30T04:43:10;8.13;;;4.78;;
77466;SDS011;66564;42.482;25.548;2024-01-30T04:45:35;11.18;;;5.90;;
77466;SDS011;66564;42.482;25.548;2024-01-30T04:48:01;9.05;;;4.78;;
77466;SDS011;66564;42.482;25.548;2024-01-30T04:50:26;8.45;;;4.28;;
77466;SDS011;66564;42.482;25.548;2024-01-30T04:52:52;9.68;;;4.63;;
77466;SDS011;66564;42.482;25.548;2024-01-30T04:55:17;11.32;;;5.28;;
77466;SDS011;66564;42.482;25.548;2024-01-30T04:57:43;11.35;;;4.97;;
77466;SDS011;66564;42.482;25.548;2024-01-30T05:00:08;10.65;;;5.57;;
77466;SDS011;66564;42.482;25.548;2024-01-30T05:02:34;9.07;;;4.80;;
77466;SDS011;66564;42.482;25.548;2024-01-30T05:05:00;10.52;;;6.28;;
77466;SDS011;66564;42.482;25.548;2024-01-30T05:07:25;10.13;;;5.25;;
77466;SDS011;66564;42.482;25.548;2024-01-30T05:09:51;8.70;;;4.68;;
77466;SDS011;66564;42.482;25.548;2024-01-30T05:12:16;10.00;;;4.60;;
77466;SDS011;66564;42.482;25.548;2024-01-30T05:14:42;11.77;;;4.70;;
77466;SDS011;66564;42.482;25.548;2024-01-30T05:17:07;11.32;;;5.63;;
77466;SDS011;66564;42.482;25.548;2024-01-30T05:19:35;9.43;;;5.47;;
77466;SDS011;66564;42.482;25.548;2024-01-30T05:22:01;10.57;;;5.80;;
77466;SDS011;66564;42.482;25.548;2024-01-30T05:24:26;10.07;;;6.32;;
77466;SDS011;66564;42.482;25.548;2024-01-30T05:26:52;9.10;;;4.55;;
77466;SDS011;66564;42.482;25.548;2024-01-30T05:29:17;11.27;;;5.25;;
77466;SDS011;66564;42.482;25.548;2024-01-30T05:31:42;10.60;;;5.78;;
77466;SDS011;66564;42.482;25.548;2024-01-30T05:34:08;15.63;;;6.00;;
77466;SDS011;66564;42.482;25.548;2024-01-30T05:36:34;12.60;;;5.30;;
77466;SDS011;66564;42.482;25.548;2024-01-30T05:39:00;11.85;;;5.90;;
77466;SDS011;66564;42.482;25.548;2024-01-30T05:41:25;12.80;;;5.43;;
77466;SDS011;66564;42.482;25.548;2024-01-30T05:43:51;11.38;;;5.90;;
77466;SDS011;66564;42.482;25.548;2024-01-30T05:46:20;11.32;;;5.70;;
77466;SDS011;66564;42.482;25.548;2024-01-30T05:48:45;12.50;;;5.78;;
77466;SDS011;66564;42.482;25.548;2024-01-30T05:51:10;11.40;;;5.88;;
77466;SDS011;66564;42.482;25.548;2024-01-30T05:53:36;13.30;;;6.22;;
77466;SDS011;66564;42.482;25.548;2024-01-30T05:56:02;9.43;;;5.43;;
77466;SDS011;66564;42.482;25.548;2024-01-30T05:58:28;12.80;;;6.57;;
77466;SDS011;66564;42.482;25.548;2024-01-30T06:00:53;10.85;;;5.72;;
77466;SDS011;66564;42.482;25.548;2024-01-30T06:03:19;9.52;;;5.82;;
77466;SDS011;66564;42.482;25.548;2024-01-30T06:05:44;12.93;;;6.65;;
77466;SDS011;66564;42.482;25.548;2024-01-30T06:08:10;11.00;;;5.93;;
77466;SDS011;66564;42.482;25.548;2024-01-30T06:10:35;18.10;;;5.90;;
77466;SDS011;66564;42.482;25.548;2024-01-30T06:13:01;13.15;;;6.45;;
77466;SDS011;66564;42.482;25.548;2024-01-30T06:15:27;9.50;;;5.18;;
77466;SDS011;66564;42.482;25.548;2024-01-30T06:17:58;12.30;;;5.82;;
77466;SDS011;66564;42.482;25.548;2024-01-30T06:20:24;12.95;;;6.03;;
77466;SDS011;66564;42.482;25.548;2024-01-30T06:22:49;11.27;;;5.35;;
77466;SDS011;66564;42.482;25.548;2024-01-30T06:25:15;20.05;;;6.25;;
77466;SDS011;66564;42.482;25.548;2024-01-30T06:27:42;15.52;;;5.50;;
77466;SDS011;66564;42.482;25.548;2024-01-30T06:30:08;12.02;;;6.15;;
77466;SDS011;66564;42.482;25.548;2024-01-30T06:32:36;20.13;;;7.72;;
77466;SDS011;66564;42.482;25.548;2024-01-30T06:35:01;16.10;;;7.57;;
77466;SDS011;66564;42.482;25.548;2024-01-30T06:37:27;16.17;;;5.50;;
77466;SDS011;66564;42.482;25.548;2024-01-30T06:39:53;9.82;;;6.45;;
77466;SDS011;66564;42.482;25.548;2024-01-30T06:42:18;11.15;;;5.90;;
77466;SDS011;66564;42.482;25.548;2024-01-30T06:44:44;15.77;;;6.45;;
77466;SDS011;66564;42.482;25.548;2024-01-30T06:47:10;13.00;;;6.40;;
77466;SDS011;66564;42.482;25.548;2024-01-30T06:49:35;12.05;;;6.10;;
77466;SDS011;66564;42.482;25.548;2024-01-30T06:52:04;9.65;;;5.30;;
77466;SDS011;66564;42.482;25.548;2024-01-30T06:54:30;12.10;;;5.88;;
77466;SDS011;66564;42.482;25.548;2024-01-30T06:56:56;14.80;;;5.97;;
77466;SDS011;66564;42.482;25.548;2024-01-30T06:59:21;9.77;;;5.40;;
77466;SDS011;66564;42.482;25.548;2024-01-30T07:01:47;11.38;;;4.68;;
77466;SDS011;66564;42.482;25.548;2024-01-30T07:04:13;9.23;;;4.88;;
77466;SDS011;66564;42.482;25.548;2024-01-30T07:06:39;10.60;;;4.70;;
77466;SDS011;66564;42.482;25.548;2024-01-30T07:09:04;10.57;;;4.60;;
77466;SDS011;66564;42.482;25.548;2024-01-30T07:11:30;8.90;;;4.82;;
77466;SDS011;66564;42.482;25.548;2024-01-30T07:13:56;9.07;;;4.75;;
77466;SDS011;66564;42.482;25.548;2024-01-30T07:16:21;7.13;;;4.18;;
77466;SDS011;66564;42.482;25.548;2024-01-30T07:18:48;9.23;;;4.93;;
77466;SDS011;66564;42.482;25.548;2024-01-30T07:21:14;7.72;;;4.28;;
77466;SDS011;66564;42.482;25.548;2024-01-30T07:23:40;7.47;;;4.03;;
77466;SDS011;66564;42.482;25.548;2024-01-30T07:26:06;13.00;;;5.03;;
77466;SDS011;66564;42.482;25.548;2024-01-30T07:28:33;9.15;;;4.68;;
77466;SDS011;66564;42.482;25.548;2024-01-30T07:30:59;11.30;;;4.78;;
77466;SDS011;66564;42.482;25.548;2024-01-30T07:33:25;8.00;;;5.15;;
77466;SDS011;66564;42.482;25.548;2024-01-30T07:35:54;14.32;;;4.88;;
77466;SDS011;66564;42.482;25.548;2024-01-30T07:38:20;11.57;;;5.05;;
77466;SDS011;66564;42.482;25.548;2024-01-30T07:40:45;8.20;;;5.00;;
77466;SDS011;66564;42.482;25.548;2024-01-30T07:43:11;10.40;;;5.00;;
77466;SDS011;66564;42.482;25.548;2024-01-30T07:45:37;6.40;;;4.55;;
77466;SDS011;66564;42.482;25.548;2024-01-30T07:48:03;9.70;;;4.47;;
77466;SDS011;66564;42.482;25.548;2024-01-30T07:50:30;10.13;;;4.65;;
77466;SDS011;66564;42.482;25.548;2024-01-30T07:52:56;8.60;;;5.15;;
77466;SDS011;66564;42.482;25.548;2024-01-30T07:55:24;7.68;;;4.68;;
77466;SDS011;66564;42.482;25.548;2024-01-30T07:57:52;6.80;;;4.10;;
77466;SDS011;66564;42.482;25.548;2024-01-30T08:00:18;9.65;;;4.65;;
77466;SDS011;66564;42.482;25.548;2024-01-30T08:02:46;11.30;;;4.53;;
77466;SDS011;66564;42.482;25.548;2024-01-30T08:05:11;7.22;;;3.97;;
77466;SDS011;66564;42.482;25.548;2024-01-30T08:07:37;12.23;;;4.78;;
77466;SDS011;66564;42.482;25.548;2024-01-30T08:10:02;9.40;;;4.60;;
77466;SDS011;66564;42.482;25.548;2024-01-30T08:12:30;10.07;;;4.00;;
77466;SDS011;66564;42.482;25.548;2024-01-30T08:14:56;9.07;;;4.75;;
77466;SDS011;66564;42.482;25.548;2024-01-30T08:17:21;9.18;;;4.32;;
77466;SDS011;66564;42.482;25.548;2024-01-30T08:19:47;16.70;;;4.75;;
77466;SDS011;66564;42.482;25.548;2024-01-30T08:22:12;23.25;;;5.63;;
77466;SDS011;66564;42.482;25.548;2024-01-30T08:24:38;6.50;;;3.30;;
77466;SDS011;66564;42.482;25.548;2024-01-30T08:27:05;8.40;;;4.47;;
77466;SDS011;66564;42.482;25.548;2024-01-30T08:29:31;6.65;;;3.70;;
77466;SDS011;66564;42.482;25.548;2024-01-30T08:31:57;6.25;;;3.88;;
77466;SDS011;66564;42.482;25.548;2024-01-30T08:34:24;43.78;;;5.55;;
77466;SDS011;66564;42.482;25.548;2024-01-30T08:36:49;7.95;;;4.05;;
77466;SDS011;66564;42.482;25.548;2024-01-30T08:39:15;7.55;;;4.13;;
77466;SDS011;66564;42.482;25.548;2024-01-30T08:41:40;6.53;;;3.75;;
77466;SDS011;66564;42.482;25.548;2024-01-30T08:44:06;8.25;;;4.43;;
77466;SDS011;66564;42.482;25.548;2024-01-30T08:46:32;6.32;;;3.78;;
77466;SDS011;66564;42.482;25.548;2024-01-30T08:48:59;7.15;;;3.63;;
77466;SDS011;66564;42.482;25.548;2024-01-30T08:51:24;5.72;;;3.92;;
77466;SDS011;66564;42.482;25.548;2024-01-30T08:53:50;7.78;;;4.28;;
77466;SDS011;66564;42.482;25.548;2024-01-30T08:56:15;5.97;;;3.95;;
77466;SDS011;66564;42.482;25.548;2024-01-30T08:58:41;9.57;;;4.25;;
77466;SDS011;66564;42.482;25.548;2024-01-30T09:01:07;7.20;;;3.55;;
77466;SDS011;66564;42.482;25.548;2024-01-30T09:03:32;7.65;;;3.97;;
77466;SDS011;66564;42.482;25.548;2024-01-30T09:05:58;5.75;;;3.58;;
77466;SDS011;66564;42.482;25.548;2024-01-30T09:08:23;12.05;;;3.88;;
77466;SDS011;66564;42.482;25.548;2024-01-30T09:10:48;8.13;;;3.22;;
77466;SDS011;66564;42.482;25.548;2024-01-30T09:13:15;7.18;;;3.97;;
77466;SDS011;66564;42.482;25.548;2024-01-30T09:15:41;7.53;;;3.78;;
77466;SDS011;66564;42.482;25.548;2024-01-30T09:18:07;6.88;;;3.85;;
77466;SDS011;66564;42.482;25.548;2024-01-30T09:20:32;10.45;;;3.70;;
77466;SDS011;66564;42.482;25.548;2024-01-30T09:22:58;6.75;;;3.53;;
77466;SDS011;66564;42.482;25.548;2024-01-30T09:25:23;5.57;;;3.10;;
77466;SDS011;66564;42.482;25.548;2024-01-30T09:27:49;6.55;;;3.13;;
77466;SDS011;66564;42.482;25.548;2024-01-30T09:30:14;7.20;;;3.80;;
77466;SDS011;66564;42.482;25.548;2024-01-30T09:32:40;5.70;;;3.15;;
77466;SDS011;66564;42.482;25.548;2024-01-30T09:35:06;6.32;;;3.63;;
77466;SDS011;66564;42.482;25.548;2024-01-30T09:37:32;9.43;;;3.60;;
77466;SDS011;66564;42.482;25.548;2024-01-30T09:39:58;6.78;;;3.50;;
77466;SDS011;66564;42.482;25.548;2024-01-30T09:44:50;7.18;;;4.03;;
77466;SDS011;66564;42.482;25.548;2024-01-30T09:47:18;8.68;;;3.85;;
77466;SDS011;66564;42.482;25.548;2024-01-30T09:49:43;13.20;;;4.03;;
77466;SDS011;66564;42.482;25.548;2024-01-30T09:52:09;5.35;;;3.63;;
77466;SDS011;66564;42.482;25.548;2024-01-30T09:54:35;6.50;;;3.83;;
77466;SDS011;66564;42.482;25.548;2024-01-30T09:57:03;12.23;;;4.30;;
77466;SDS011;66564;42.482;25.548;2024-01-30T09:59:29;9.15;;;3.65;;
77466;SDS011;66564;42.482;25.548;2024-01-30T10:01:55;7.53;;;3.72;;
77466;SDS011;66564;42.482;25.548;2024-01-30T10:04:21;8.68;;;3.95;;
77466;SDS011;66564;42.482;25.548;2024-01-30T10:06:47;10.70;;;4.45;;
77466;SDS011;66564;42.482;25.548;2024-01-30T10:09:12;6.53;;;3.58;;
77466;SDS011;66564;42.482;25.548;2024-01-30T10:11:38;11.85;;;4.00;;
77466;SDS011;66564;42.482;25.548;2024-01-30T10:14:04;8.00;;;3.65;;
77466;SDS011;66564;42.482;25.548;2024-01-30T10:16:30;8.43;;;4.22;;
77466;SDS011;66564;42.482;25.548;2024-01-30T10:18:55;8.98;;;4.07;;
77466;SDS011;66564;42.482;25.548;2024-01-30T10:21:21;8.38;;;3.92;;
77466;SDS011;66564;42.482;25.548;2024-01-30T10:23:46;12.15;;;4.45;;
77466;SDS011;66564;42.482;25.548;2024-01-30T10:26:12;6.93;;;4.25;;
77466;SDS011;66564;42.482;25.548;2024-01-30T10:28:37;8.00;;;4.18;;
77466;SDS011;66564;42.482;25.548;2024-01-30T10:31:03;9.68;;;4.25;;
77466;SDS011;66564;42.482;25.548;2024-01-30T10:33:31;11.48;;;4.93;;
77466;SDS011;66564;42.482;25.548;2024-01-30T10:36:01;8.80;;;4.15;;
77466;SDS011;66564;42.482;25.548;2024-01-30T10:38:31;9.82;;;4.68;;
77466;SDS011;66564;42.482;25.548;2024-01-30T10:40:57;8.27;;;4.00;;
77466;SDS011;66564;42.482;25.548;2024-01-30T10:43:35;8.07;;;3.88;;
77466;SDS011;66564;42.482;25.548;2024-01-30T10:46:15;7.05;;;4.30;;
77466;SDS011;66564;42.482;25.548;2024-01-30T10:48:50;8.45;;;4.10;;
77466;SDS011;66564;42.482;25.548;2024-01-30T10:51:22;8.13;;;4.32;;
77466;SDS011;66564;42.482;25.548;2024-01-30T10:53:48;6.80;;;3.83;;
77466;SDS011;66564;42.482;25.548;2024-01-30T10:56:14;8.48;;;3.97;;
77466;SDS011;66564;42.482;25.548;2024-01-30T10:58:41;7.47;;;4.28;;
77466;SDS011;66564;42.482;25.548;2024-01-30T11:01:06;9.20;;;4.10;;
77466;SDS011;66564;42.482;25.548;2024-01-30T11:03:33;6.90;;;3.95;;
77466;SDS011;66564;42.482;25.548;2024-01-30T11:06:01;8.65;;;4.10;;
77466;SDS011;66564;42.482;25.548;2024-01-30T11:08:27;7.65;;;3.55;;
77466;SDS011;66564;42.482;25.548;2024-01-30T11:10:57;8.20;;;3.85;;
77466;SDS011;66564;42.482;25.548;2024-01-30T11:13:30;8.23;;;4.35;;
77466;SDS011;66564;42.482;25.548;2024-01-30T11:15:59;7.45;;;4.03;;
77466;SDS011;66564;42.482;25.548;2024-01-30T11:18:29;5.47;;;3.67;;
77466;SDS011;66564;42.482;25.548;2024-01-30T11:20:58;5.55;;;3.47;;
77466;SDS011;66564;42.482;25.548;2024-01-30T11:23:27;10.40;;;4.13;;
77466;SDS011;66564;42.482;25.548;2024-01-30T11:25:56;11.35;;;4.18;;
77466;SDS011;66564;42.482;25.548;2024-01-30T11:28:21;8.45;;;4.45;;
77466;SDS011;66564;42.482;25.548;2024-01-30T11:30:47;8.23;;;3.90;;
77466;SDS011;66564;42.482;25.548;2024-01-30T11:33:15;6.03;;;3.58;;
77466;SDS011;66564;42.482;25.548;2024-01-30T11:35:56;9.60;;;4.18;;
77466;SDS011;66564;42.482;25.548;2024-01-30T11:38:26;8.82;;;3.97;;
77466;SDS011;66564;42.482;25.548;2024-01-30T11:40:53;10.80;;;3.90;;
77466;SDS011;66564;42.482;25.548;2024-01-30T11:43:20;7.15;;;3.83;;
77466;SDS011;66564;42.482;25.548;2024-01-30T11:45:45;7.22;;;3.78;;
77466;SDS011;66564;42.482;25.548;2024-01-30T11:48:12;7.78;;;4.55;;
77466;SDS011;66564;42.482;25.548;2024-01-30T11:50:38;6.80;;;3.65;;
77466;SDS011;66564;42.482;25.548;2024-01-30T11:53:05;7.70;;;4.03;;
77466;SDS011;66564;42.482;25.548;2024-01-30T11:55:30;6.85;;;4.15;;
77466;SDS011;66564;42.482;25.548;2024-01-30T11:57:57;6.68;;;4.45;;
77466;SDS011;66564;42.482;25.548;2024-01-30T12:00:23;8.32;;;4.03;;
77466;SDS011;66564;42.482;25.548;2024-01-30T12:02:52;8.75;;;4.10;;
77466;SDS011;66564;42.482;25.548;2024-01-30T12:05:25;7.13;;;4.18;;
77466;SDS011;66564;42.482;25.548;2024-01-30T12:07:51;7.78;;;3.80;;
77466;SDS011;66564;42.482;25.548;2024-01-30T12:10:17;6.18;;;3.72;;
77466;SDS011;66564;42.482;25.548;2024-01-30T12:12:43;6.97;;;4.38;;
77466;SDS011;66564;42.482;25.548;2024-01-30T12:15:11;7.35;;;4.13;;
77466;SDS011;66564;42.482;25.548;2024-01-30T12:17:38;8.82;;;4.57;;
77466;SDS011;66564;42.482;25.548;2024-01-30T12:20:07;6.03;;;3.85;;
77466;SDS011;66564;42.482;25.548;2024-01-30T12:25:08;8.65;;;4.47;;
77466;SDS011;66564;42.482;25.548;2024-01-30T12:27:38;8.30;;;4.18;;
77466;SDS011;66564;42.482;25.548;2024-01-30T12:30:05;7.63;;;3.97;;
77466;SDS011;66564;42.482;25.548;2024-01-30T12:32:34;7.90;;;3.85;;
77466;SDS011;66564;42.482;25.548;2024-01-30T12:35:00;7.28;;;4.25;;
77466;SDS011;66564;42.482;25.548;2024-01-30T12:37:25;6.90;;;4.25;;
77466;SDS011;66564;42.482;25.548;2024-01-30T12:39:51;7.05;;;4.25;;
77466;SDS011;66564;42.482;25.548;2024-01-30T12:42:20;6.45;;;3.83;;
77466;SDS011;66564;42.482;25.548;2024-01-30T12:44:49;12.88;;;5.40;;
77466;SDS011;66564;42.482;25.548;2024-01-30T12:47:15;10.25;;;4.80;;
77466;SDS011;66564;42.482;25.548;2024-01-30T12:49:45;7.05;;;4.20;;
77466;SDS011;66564;42.482;25.548;2024-01-30T12:52:14;12.00;;;4.65;;
77466;SDS011;66564;42.482;25.548;2024-01-30T12:54:42;7.60;;;4.95;;
77466;SDS011;66564;42.482;25.548;2024-01-30T12:57:08;9.20;;;4.55;;
77466;SDS011;66564;42.482;25.548;2024-01-30T12:59:33;10.02;;;4.38;;
77466;SDS011;66564;42.482;25.548;2024-01-30T13:02:00;6.57;;;3.90;;
77466;SDS011;66564;42.482;25.548;2024-01-30T13:04:26;9.25;;;5.45;;
77466;SDS011;66564;42.482;25.548;2024-01-30T13:06:52;9.15;;;5.03;;
77466;SDS011;66564;42.482;25.548;2024-01-30T13:09:18;7.47;;;4.63;;
77466;SDS011;66564;42.482;25.548;2024-01-30T13:11:43;10.52;;;5.35;;
77466;SDS011;66564;42.482;25.548;2024-01-30T13:14:09;11.02;;;5.57;;
77466;SDS011;66564;42.482;25.548;2024-01-30T13:16:34;9.40;;;4.78;;
77466;SDS011;66564;42.482;25.548;2024-01-30T13:19:00;7.78;;;4.88;;
77466;SDS011;66564;42.482;25.548;2024-01-30T13:21:27;7.65;;;4.60;;
77466;SDS011;66564;42.482;25.548;2024-01-30T13:23:53;16.80;;;5.38;;
77466;SDS011;66564;42.482;25.548;2024-01-30T13:26:19;8.85;;;4.43;;
77466;SDS011;66564;42.482;25.548;2024-01-30T13:28:45;12.70;;;4.95;;
77466;SDS011;66564;42.482;25.548;2024-01-30T13:31:11;8.50;;;5.53;;
77466;SDS011;66564;42.482;25.548;2024-01-30T13:33:37;8.27;;;4.38;;
77466;SDS011;66564;42.482;25.548;2024-01-30T13:36:03;8.70;;;4.95;;
77466;SDS011;66564;42.482;25.548;2024-01-30T13:38:28;8.05;;;5.10;;
77466;SDS011;66564;42.482;25.548;2024-01-30T13:40:54;7.43;;;4.88;;
77466;SDS011;66564;42.482;25.548;2024-01-30T13:43:19;8.80;;;4.75;;
77466;SDS011;66564;42.482;25.548;2024-01-30T13:45:45;9.30;;;4.57;;
77466;SDS011;66564;42.482;25.548;2024-01-30T13:48:11;9.75;;;5.15;;
77466;SDS011;66564;42.482;25.548;2024-01-30T13:50:37;11.73;;;5.18;;
77466;SDS011;66564;42.482;25.548;2024-01-30T13:53:02;19.83;;;5.05;;
77466;SDS011;66564;42.482;25.548;2024-01-30T13:55:29;8.25;;;4.50;;
77466;SDS011;66564;42.482;25.548;2024-01-30T13:57:55;8.85;;;4.75;;
77466;SDS011;66564;42.482;25.548;2024-01-30T14:00:21;21.40;;;4.97;;
77466;SDS011;66564;42.482;25.548;2024-01-30T14:02:48;10.38;;;4.57;;
77466;SDS011;66564;42.482;25.548;2024-01-30T14:05:13;8.57;;;4.40;;
77466;SDS011;66564;42.482;25.548;2024-01-30T14:07:39;9.15;;;4.43;;
77466;SDS011;66564;42.482;25.548;2024-01-30T14:10:06;8.73;;;4.28;;
77466;SDS011;66564;42.482;25.548;2024-01-30T14:12:32;8.55;;;4.13;;
77466;SDS011;66564;42.482;25.548;2024-01-30T14:14:57;7.57;;;4.00;;
77466;SDS011;66564;42.482;25.548;2024-01-30T14:17:22;12.30;;;4.30;;
77466;SDS011;66564;42.482;25.548;2024-01-30T14:19:48;7.32;;;3.95;;
77466;SDS011;66564;42.482;25.548;2024-01-30T14:22:13;8.43;;;4.43;;
77466;SDS011;66564;42.482;25.548;2024-01-30T14:24:39;12.07;;;4.57;;
77466;SDS011;66564;42.482;25.548;2024-01-30T14:27:04;8.18;;;3.92;;
77466;SDS011;66564;42.482;25.548;2024-01-30T14:29:30;9.55;;;3.92;;